Time;durP1;ratioP1;P1;durP2;ratioP2;P2;SDS_P1;SDS_P2;PMS_P1;PMS_P2;Temp;Humidity;BMP_temperature;BMP_pressure;BME280_temperature;BME280_humidity;BME280_pressure;Samples;Min_cycle;Max_cycle;Signal;HPM_P1;HPM_P2
2022/10/16 00:00:35;;;;;;;1999.90;999.90;;;15.50;99.90;;;;;;5029822;28;20479;-68
2022/10/16 00:03:02;;;;;;;1999.90;999.90;;;15.40;99.90;;;;;;5028280;28;20487;-69
2022/10/16 00:05:29;;;;;;;1999.90;999.90;;;15.30;99.90;;;;;;5026944;28;20462;-68
2022/10/16 00:07:56;;;;;;;1999.90;999.90;;;15.40;99.90;;;;;;5027893;28;20947;-68
2022/10/16 00:10:23;;;;;;;1999.90;999.90;;;15.30;99.90;;;;;;5021856;28;20474;-68
2022/10/16 00:12:50;;;;;;;1999.90;999.90;;;15.20;99.90;;;;;;5023405;28;20452;-68
2022/10/16 00:15:18;;;;;;;1999.90;999.90;;;15.30;99.90;;;;;;5025858;28;20459;-68
2022/10/16 00:17:44;;;;;;;1999.90;999.90;;;15.20;99.90;;;;;;5029514;28;20459;-69
2022/10/16 00:20:11;;;;;;;1999.90;999.90;;;15.10;99.90;;;;;;5027299;28;20463;-68
2022/10/16 00:22:38;;;;;;;1999.90;999.90;;;15.00;99.90;;;;;;5027777;28;20459;-68
2022/10/16 00:25:05;;;;;;;1999.90;999.90;;;15.20;99.90;;;;;;5026661;28;20490;-68
2022/10/16 00:27:32;;;;;;;1999.90;999.90;;;15.00;99.90;;;;;;5027636;28;20459;-68
2022/10/16 00:29:59;;;;;;;1999.90;999.90;;;14.90;99.90;;;;;;5028310;28;20463;-68
2022/10/16 00:32:27;;;;;;;1999.90;999.90;;;14.80;99.90;;;;;;5027303;28;22037;-68
2022/10/16 00:34:54;;;;;;;1999.90;999.90;;;14.70;99.90;;;;;;5026337;28;20466;-68
2022/10/16 00:37:21;;;;;;;1999.90;999.90;;;14.70;99.90;;;;;;5022329;28;20473;-68
2022/10/16 00:39:48;;;;;;;1999.90;999.90;;;14.70;99.90;;;;;;5027371;28;20459;-68
2022/10/16 00:42:17;;;;;;;1999.90;999.90;;;14.70;99.90;;;;;;5025597;28;21025;-67
2022/10/16 00:44:52;;;;;;;1999.90;999.90;;;14.60;99.90;;;;;;5021007;28;20494;-68
2022/10/16 00:47:23;;;;;;;1999.90;999.90;;;14.50;99.90;;;;;;5027635;28;20467;-67
2022/10/16 00:49:56;;;;;;;1999.90;999.90;;;14.40;99.90;;;;;;5028273;28;20455;-68
2022/10/16 00:52:23;;;;;;;1999.90;999.90;;;14.40;99.90;;;;;;5026022;28;21057;-68
2022/10/16 00:54:50;;;;;;;1999.90;999.90;;;14.30;99.90;;;;;;5027516;28;20455;-69
2022/10/16 00:57:17;;;;;;;1999.90;999.90;;;14.30;99.90;;;;;;5024851;28;20474;-68
2022/10/16 00:59:44;;;;;;;1999.90;999.90;;;14.30;99.90;;;;;;5027891;28;20454;-68
2022/10/16 01:02:14;;;;;;;1999.90;999.90;;;14.20;99.90;;;;;;5026495;28;20475;-66
2022/10/16 01:04:44;;;;;;;1999.90;999.90;;;14.30;99.90;;;;;;5028725;28;21042;-67
2022/10/16 01:07:23;;;;;;;1999.90;999.90;;;14.20;99.90;;;;;;5031102;28;20470;-68
2022/10/16 01:10:02;;;;;;;1999.90;999.90;;;14.30;99.90;;;;;;5029686;28;20463;-67
2022/10/16 01:12:40;;;;;;;1999.90;999.90;;;14.30;99.90;;;;;;5028851;28;20486;-71
2022/10/16 01:15:12;;;;;;;1999.90;999.90;;;14.30;99.90;;;;;;5029381;28;20512;-67
2022/10/16 01:17:45;;;;;;;1999.90;999.90;;;14.30;99.90;;;;;;5030359;28;20840;-68
2022/10/16 01:20:22;;;;;;;1999.90;999.90;;;14.60;99.90;;;;;;5029497;28;20471;-67
2022/10/16 01:23:02;;;;;;;1999.90;999.90;;;14.20;99.90;;;;;;5030227;28;20489;-68
2022/10/16 01:25:38;;;;;;;1999.90;999.90;;;14.20;99.90;;;;;;5030177;28;20842;-67
2022/10/16 01:28:10;;;;;;;1999.90;999.90;;;14.20;99.90;;;;;;5029190;28;20458;-70
2022/10/16 01:30:38;;;;;;;1999.90;999.90;;;14.00;99.90;;;;;;5028669;28;20482;-70
2022/10/16 01:33:13;;;;;;;1999.90;999.90;;;14.00;99.90;;;;;;5029104;28;20459;-71
2022/10/16 01:35:43;;;;;;;1999.90;999.90;;;14.20;99.90;;;;;;5029782;28;20461;-70
2022/10/16 01:38:15;;;;;;;1999.90;999.90;;;14.00;99.90;;;;;;5028366;28;20459;-69
2022/10/16 01:40:46;;;;;;;1999.90;999.90;;;14.00;99.90;;;;;;5031362;28;20486;-70
2022/10/16 01:43:18;;;;;;;1999.90;999.90;;;14.00;99.90;;;;;;5027619;28;20467;-69
2022/10/16 01:45:46;;;;;;;1999.90;999.90;;;13.90;99.90;;;;;;5025894;28;20465;-71
2022/10/16 01:48:15;;;;;;;1999.90;999.90;;;13.90;99.90;;;;;;5028262;28;20471;-70
2022/10/16 01:50:44;;;;;;;1999.90;999.90;;;13.80;99.90;;;;;;5031389;28;20483;-69
2022/10/16 01:53:15;;;;;;;1999.90;999.90;;;13.80;99.90;;;;;;5026545;28;20455;-69
2022/10/16 01:55:45;;;;;;;1999.90;999.90;;;13.80;99.90;;;;;;5029161;28;20955;-70
2022/10/16 01:58:15;;;;;;;1999.90;999.90;;;13.90;99.90;;;;;;5029005;28;20456;-70
2022/10/16 02:00:45;;;;;;;1999.90;999.90;;;13.90;99.90;;;;;;5029321;28;20479;-68
2022/10/16 02:03:14;;;;;;;1999.90;999.90;;;13.90;99.90;;;;;;5029452;28;20895;-69
2022/10/16 02:05:46;;;;;;;1999.90;999.90;;;13.90;99.90;;;;;;5030488;28;20451;-69
2022/10/16 02:08:13;;;;;;;1999.90;999.90;;;13.80;99.90;;;;;;5027499;28;20987;-68
2022/10/16 02:10:40;;;;;;;1999.90;999.90;;;13.80;99.90;;;;;;5031736;28;20486;-68
2022/10/16 02:13:09;;;;;;;1999.90;999.90;;;13.90;99.90;;;;;;5028801;28;20464;-68
2022/10/16 02:15:38;;;;;;;1999.90;999.90;;;13.90;99.90;;;;;;5029302;28;20456;-68
2022/10/16 02:18:06;;;;;;;1999.90;999.90;;;13.80;99.90;;;;;;5025108;28;20459;-71
2022/10/16 02:20:37;;;;;;;1999.90;999.90;;;13.70;99.90;;;;;;5028136;28;20497;-71
2022/10/16 02:23:04;;;;;;;1999.90;999.90;;;13.70;99.90;;;;;;5029451;28;20820;-70
2022/10/16 02:25:34;;;;;;;1999.90;999.90;;;13.70;99.90;;;;;;5027306;28;21429;-70
2022/10/16 02:28:04;;;;;;;1999.90;999.90;;;13.80;99.90;;;;;;5029976;28;20459;-71
2022/10/16 02:30:36;;;;;;;1999.90;999.90;;;13.80;99.90;;;;;;5030257;28;20451;-68
2022/10/16 02:33:07;;;;;;;1999.90;999.90;;;13.80;99.90;;;;;;5027645;28;20459;-69
2022/10/16 02:35:35;;;;;;;1999.90;999.90;;;13.90;99.90;;;;;;5029488;28;20455;-69
2022/10/16 02:38:02;;;;;;;1999.90;999.90;;;13.90;99.90;;;;;;5030272;28;20463;-69
2022/10/16 02:40:29;;;;;;;1999.90;999.90;;;14.00;99.90;;;;;;5029748;28;20470;-69
2022/10/16 02:42:57;;;;;;;1999.90;999.90;;;14.00;99.90;;;;;;5029434;28;20462;-67
2022/10/16 02:45:24;;;;;;;1999.90;999.90;;;14.10;99.90;;;;;;5027379;28;20492;-68
2022/10/16 02:47:51;;;;;;;1999.90;999.90;;;14.20;99.90;;;;;;5013861;28;20469;-69
2022/10/16 02:50:19;;;;;;;1999.90;999.90;;;14.00;99.90;;;;;;5025564;28;20458;-72
2022/10/16 02:52:46;;;;;;;1999.90;999.90;;;14.10;99.90;;;;;;5025430;28;20455;-70
2022/10/16 02:55:13;;;;;;;1999.90;999.90;;;13.90;99.90;;;;;;5022832;28;20975;-69
2022/10/16 02:57:40;;;;;;;1999.90;999.90;;;14.00;99.90;;;;;;5028469;28;20524;-69
2022/10/16 03:00:08;;;;;;;1999.90;999.90;;;14.00;99.90;;;;;;5024019;28;20465;-67
2022/10/16 03:02:35;;;;;;;1999.90;999.90;;;14.00;99.90;;;;;;5023322;28;20851;-68
2022/10/16 03:05:02;;;;;;;1999.90;999.90;;;14.10;99.90;;;;;;5027031;28;20877;-69
2022/10/16 03:07:30;;;;;;;1999.90;999.90;;;14.10;99.90;;;;;;5025237;28;20463;-68
2022/10/16 03:09:59;;;;;;;1999.90;999.90;;;14.10;99.90;;;;;;5027119;28;20470;-69
2022/10/16 03:12:26;;;;;;;1999.90;999.90;;;14.00;99.90;;;;;;5023150;28;20484;-68
2022/10/16 03:14:53;;;;;;;1999.90;999.90;;;14.10;99.90;;;;;;5024465;28;20459;-68
2022/10/16 03:17:20;;;;;;;1999.90;999.90;;;13.90;99.90;;;;;;5023234;28;20476;-69
2022/10/16 03:19:47;;;;;;;1999.90;999.90;;;14.00;99.90;;;;;;5026884;28;20471;-68
2022/10/16 03:22:13;;;;;;;1999.90;999.90;;;13.90;99.90;;;;;;5027190;28;20489;-67
2022/10/16 03:24:42;;;;;;;1999.90;999.90;;;13.90;99.90;;;;;;5024867;28;21160;-67
2022/10/16 03:27:08;;;;;;;1999.90;999.90;;;13.90;99.90;;;;;;5028080;28;20462;-68
2022/10/16 03:29:35;;;;;;;1999.90;999.90;;;13.90;99.90;;;;;;5024263;28;20471;-66
2022/10/16 03:32:02;;;;;;;1999.90;999.90;;;13.90;99.90;;;;;;5027034;28;20494;-67
2022/10/16 03:34:29;;;;;;;1999.90;999.90;;;13.90;99.90;;;;;;5027031;28;20486;-69
2022/10/16 03:36:56;;;;;;;1999.90;999.90;;;13.90;99.90;;;;;;5027928;28;20459;-69
2022/10/16 03:39:23;;;;;;;1999.90;999.90;;;14.00;99.90;;;;;;5022955;28;20561;-68
2022/10/16 03:41:51;;;;;;;1999.90;999.90;;;13.90;99.90;;;;;;5026183;28;20478;-69
2022/10/16 03:44:18;;;;;;;1999.90;999.90;;;13.90;99.90;;;;;;5024699;28;20483;-68
2022/10/16 03:46:45;;;;;;;1999.90;999.90;;;13.80;99.90;;;;;;5028295;28;20834;-66
2022/10/16 03:49:12;;;;;;;1999.90;999.90;;;13.70;99.90;;;;;;5024402;28;20682;-68
2022/10/16 03:51:38;;;;;;;1999.90;999.90;;;13.70;99.90;;;;;;5020441;28;103276;-73
2022/10/16 03:54:05;;;;;;;1999.90;999.90;;;13.70;99.90;;;;;;5026489;28;20463;-66
2022/10/16 03:56:32;;;;;;;1999.90;999.90;;;13.60;99.90;;;;;;5025654;28;20467;-69
2022/10/16 03:59:00;;;;;;;1999.90;999.90;;;13.50;99.90;;;;;;5027785;28;20562;-71
2022/10/16 04:01:27;;;;;;;1999.90;999.90;;;13.50;99.90;;;;;;5023868;28;20483;-72
2022/10/16 04:03:54;;;;;;;1999.90;999.90;;;13.40;99.90;;;;;;5025346;28;20455;-71
2022/10/16 04:06:21;;;;;;;1999.90;999.90;;;13.40;99.90;;;;;;5026178;28;20466;-71
2022/10/16 04:08:47;;;;;;;1999.90;999.90;;;13.40;99.90;;;;;;5029189;28;20471;-71
2022/10/16 04:11:14;;;;;;;1999.90;999.90;;;13.50;99.90;;;;;;5029127;28;20474;-71
2022/10/16 04:13:41;;;;;;;1999.90;999.90;;;13.50;99.90;;;;;;5025921;28;20474;-71
2022/10/16 04:16:09;;;;;;;1999.90;999.90;;;13.60;99.90;;;;;;5025057;28;20454;-71
2022/10/16 04:18:36;;;;;;;1999.90;999.90;;;14.00;99.90;;;;;;5029280;28;20478;-66
2022/10/16 04:21:04;;;;;;;1999.90;999.90;;;13.60;99.90;;;;;;5025396;28;20502;-70
2022/10/16 04:23:31;;;;;;;1999.90;999.90;;;13.70;99.90;;;;;;5030973;28;20466;-67
2022/10/16 04:25:57;;;;;;;1999.90;999.90;;;13.70;99.90;;;;;;5024982;28;20494;-71
2022/10/16 04:28:24;;;;;;;1999.90;999.90;;;13.70;99.90;;;;;;5024567;28;20460;-71
2022/10/16 04:30:51;;;;;;;1999.90;999.90;;;13.60;99.90;;;;;;5025501;28;20987;-71
2022/10/16 04:33:19;;;;;;;1999.90;999.90;;;13.60;99.90;;;;;;5026510;28;20875;-70
2022/10/16 04:35:46;;;;;;;1999.90;999.90;;;13.70;99.90;;;;;;5027400;28;20474;-71
2022/10/16 04:38:13;;;;;;;1999.90;999.90;;;13.60;99.90;;;;;;5023858;28;20459;-68
2022/10/16 04:40:39;;;;;;;1999.90;999.90;;;13.60;99.90;;;;;;5026459;28;20487;-70
2022/10/16 04:43:07;;;;;;;1999.90;999.90;;;13.50;99.90;;;;;;5027743;28;20490;-71
2022/10/16 04:45:33;;;;;;;1999.90;999.90;;;13.40;99.90;;;;;;5034175;28;20479;-70
2022/10/16 04:48:01;;;;;;;1999.90;999.90;;;13.40;99.90;;;;;;5035471;28;20447;-72
2022/10/16 04:50:29;;;;;;;1999.90;999.90;;;13.50;99.90;;;;;;5031521;28;20468;-70
2022/10/16 04:52:55;;;;;;;1999.90;999.90;;;13.50;99.90;;;;;;5029068;28;20506;-71
2022/10/16 04:55:22;;;;;;;1999.90;999.90;;;13.50;99.90;;;;;;5027182;28;20960;-71
2022/10/16 04:57:49;;;;;;;1999.90;999.90;;;13.50;99.90;;;;;;5043471;28;20440;-71
2022/10/16 05:00:16;;;;;;;1999.90;999.90;;;13.50;99.90;;;;;;5036571;28;20983;-71
2022/10/16 05:02:43;;;;;;;1999.90;999.90;;;13.60;99.90;;;;;;5030331;28;20458;-70
2022/10/16 05:05:10;;;;;;;1999.90;999.90;;;13.60;99.90;;;;;;5032386;28;20479;-68
2022/10/16 05:07:38;;;;;;;1999.90;999.90;;;13.50;99.90;;;;;;5027938;28;20467;-70
2022/10/16 05:10:06;;;;;;;1999.90;999.90;;;13.40;99.90;;;;;;5032031;28;20470;-70
2022/10/16 05:12:33;;;;;;;1999.90;999.90;;;13.40;99.90;;;;;;5025453;28;20486;-72
2022/10/16 05:14:59;;;;;;;1999.90;999.90;;;13.30;99.90;;;;;;5030281;28;20482;-71
2022/10/16 05:17:26;;;;;;;1999.90;999.90;;;13.40;99.90;;;;;;5028741;28;20464;-70
2022/10/16 05:19:53;;;;;;;1999.90;999.90;;;13.40;99.90;;;;;;5031143;28;20852;-74
2022/10/16 05:22:20;;;;;;;1999.90;999.90;;;13.40;99.90;;;;;;5029182;28;21050;-72
2022/10/16 05:24:48;;;;;;;1999.90;999.90;;;13.40;99.90;;;;;;5027501;28;20478;-70
2022/10/16 05:27:18;;;;;;;1999.90;999.90;;;13.30;99.90;;;;;;5024713;28;20477;-71
2022/10/16 05:29:45;;;;;;;1999.90;999.90;;;13.30;99.90;;;;;;5027214;28;20466;-70
2022/10/16 05:32:12;;;;;;;1999.90;999.90;;;13.30;99.90;;;;;;5026339;28;20475;-71
2022/10/16 05:34:39;;;;;;;1999.90;999.90;;;13.20;99.90;;;;;;5028461;28;20466;-71
2022/10/16 05:37:06;;;;;;;1999.90;999.90;;;13.20;99.90;;;;;;5024804;28;20458;-71
2022/10/16 05:39:32;;;;;;;1999.90;999.90;;;13.20;99.90;;;;;;5026980;28;20836;-73
2022/10/16 05:42:01;;;;;;;1999.90;999.90;;;13.20;99.90;;;;;;5027559;28;20479;-71
2022/10/16 05:44:27;;;;;;;1999.90;999.90;;;13.20;99.90;;;;;;5025971;28;20471;-70
2022/10/16 05:46:54;;;;;;;1999.90;999.90;;;13.20;99.90;;;;;;5026888;28;20459;-70
2022/10/16 05:49:21;;;;;;;1999.90;999.90;;;13.00;99.90;;;;;;5029941;28;20463;-71
2022/10/16 05:51:48;;;;;;;1999.90;999.90;;;13.10;99.90;;;;;;5028163;28;20490;-71
2022/10/16 05:54:15;;;;;;;1999.90;999.90;;;13.00;99.90;;;;;;5026075;28;20471;-70
2022/10/16 05:56:42;;;;;;;1999.90;999.90;;;13.00;99.90;;;;;;5032982;28;20486;-70
2022/10/16 05:59:10;;;;;;;1999.90;999.90;;;13.00;99.90;;;;;;5032818;28;20963;-70
2022/10/16 06:01:36;;;;;;;1999.90;999.90;;;13.10;99.90;;;;;;5033735;28;20850;-70
2022/10/16 06:04:03;;;;;;;1999.90;999.90;;;13.20;99.90;;;;;;5022736;28;20959;-69
2022/10/16 06:06:31;;;;;;;1999.90;999.90;;;13.20;99.90;;;;;;5023262;28;20498;-70
2022/10/16 06:08:59;;;;;;;1999.90;999.90;;;13.30;99.90;;;;;;5031459;28;20491;-70
2022/10/16 06:11:28;;;;;;;1999.90;999.90;;;13.30;99.90;;;;;;5027458;28;20856;-68
2022/10/16 06:13:57;;;;;;;1999.90;999.90;;;13.40;99.90;;;;;;5033431;28;20473;-70
2022/10/16 06:16:26;;;;;;;1999.90;999.90;;;13.40;99.90;;;;;;5033138;28;20526;-70
2022/10/16 06:18:55;;;;;;;1999.90;999.90;;;13.50;99.90;;;;;;5027416;28;20456;-72
2022/10/16 06:21:24;;;;;;;1999.90;999.90;;;13.50;99.90;;;;;;5044512;28;20519;-70
2022/10/16 06:23:51;;;;;;;1999.90;999.90;;;13.60;99.90;;;;;;5053493;28;20442;-70
2022/10/16 06:26:20;;;;;;;1999.90;999.90;;;13.60;99.90;;;;;;5052884;28;20478;-71
2022/10/16 06:28:47;;;;;;;1999.90;999.90;;;13.60;99.90;;;;;;5053480;28;20446;-69
2022/10/16 06:31:15;;;;;;;1999.90;999.90;;;13.60;99.90;;;;;;5047032;28;20493;-71
2022/10/16 06:33:45;;;;;;;1999.90;999.90;;;13.60;99.90;;;;;;5037351;28;20467;-69
2022/10/16 06:36:14;;;;;;;1999.90;999.90;;;13.70;99.90;;;;;;5033502;28;20525;-70
2022/10/16 06:38:41;;;;;;;1999.90;999.90;;;13.80;99.90;;;;;;5033155;28;20898;-71
2022/10/16 06:41:11;;;;;;;1999.90;999.90;;;14.20;99.90;;;;;;5029237;28;20475;-70
2022/10/16 06:43:37;;;;;;;1999.90;999.90;;;14.00;99.90;;;;;;5024950;28;20523;-71
2022/10/16 06:46:07;;;;;;;1999.90;999.90;;;14.10;99.90;;;;;;5026714;28;20573;-70
2022/10/16 06:48:34;;;;;;;1999.90;999.90;;;14.20;99.90;;;;;;5030342;28;20884;-68
2022/10/16 06:51:05;;;;;;;1999.90;999.90;;;14.30;99.90;;;;;;5031876;28;20479;-67
2022/10/16 06:53:34;;;;;;;1999.90;999.90;;;14.30;99.90;;;;;;5031582;28;20466;-68
2022/10/16 06:56:08;;;;;;;1999.90;999.90;;;14.30;99.90;;;;;;5032633;28;20467;-68
2022/10/16 06:58:35;;;;;;;1999.90;999.90;;;14.30;99.90;;;;;;5028622;28;20547;-70
2022/10/16 07:01:01;;;;;;;1999.90;999.90;;;14.30;99.90;;;;;;5027574;28;20508;-69
2022/10/16 07:03:28;;;;;;;1999.90;999.90;;;14.80;99.90;;;;;;5024381;28;20469;-70
2022/10/16 07:05:56;;;;;;;1999.90;999.90;;;14.30;99.90;;;;;;5032012;28;20475;-69
2022/10/16 07:08:24;;;;;;;1999.90;999.90;;;14.40;99.90;;;;;;5032530;28;20455;-71
2022/10/16 07:10:59;;;;;;;1999.90;999.90;;;14.40;99.90;;;;;;5026118;28;20482;-68
2022/10/16 07:13:26;;;;;;;1999.90;999.90;;;14.70;99.90;;;;;;5028208;28;20552;-69
2022/10/16 07:15:53;;;;;;;1999.90;999.90;;;14.50;99.90;;;;;;5030526;28;20455;-69
2022/10/16 07:18:20;;;;;;;1999.90;999.90;;;14.60;99.90;;;;;;5024955;28;20468;-69
2022/10/16 07:20:47;;;;;;;1999.90;999.90;;;14.80;99.90;;;;;;5024848;28;20485;-69
2022/10/16 07:23:13;;;;;;;1999.90;999.90;;;15.10;99.90;;;;;;5027273;28;20481;-69
2022/10/16 07:25:41;;;;;;;1999.90;999.90;;;15.30;99.90;;;;;;5038871;28;20482;-72
2022/10/16 07:28:09;;;;;;;1999.90;999.90;;;15.50;99.90;;;;;;5023143;28;20467;-71
2022/10/16 07:30:37;;;;;;;1999.90;999.90;;;15.60;99.90;;;;;;5021514;28;20867;-68
2022/10/16 07:33:04;;;;;;;1999.90;999.90;;;15.60;99.90;;;;;;5026290;28;21011;-69
2022/10/16 07:35:31;;;;;;;1999.90;999.90;;;15.60;99.90;;;;;;5028992;28;20948;-69
2022/10/16 07:37:57;;;;;;;1999.90;999.90;;;15.60;99.90;;;;;;5031995;28;20836;-69
2022/10/16 07:40:26;;;;;;;1999.90;999.90;;;15.60;99.90;;;;;;5032553;28;20462;-69
2022/10/16 07:42:54;;;;;;;1999.90;999.90;;;15.60;99.90;;;;;;5032110;28;20485;-72
2022/10/16 07:45:21;;;;;;;1999.90;999.90;;;15.60;99.90;;;;;;5027622;28;20473;-70
2022/10/16 07:47:48;;;;;;;1999.90;999.90;;;15.60;99.90;;;;;;5036263;28;20468;-69
2022/10/16 07:50:15;;;;;;;1999.90;999.90;;;15.70;99.90;;;;;;5043842;28;20442;-70
2022/10/16 07:52:42;;;;;;;1999.90;999.90;;;15.60;99.90;;;;;;5052191;28;20445;-69
2022/10/16 07:55:09;;;;;;;1999.90;999.90;;;15.60;99.90;;;;;;5052033;28;20812;-70
2022/10/16 07:57:36;;;;;;;1999.90;999.90;;;15.60;99.90;;;;;;5034750;28;20469;-69
2022/10/16 08:00:05;;;;;;;1999.90;999.90;;;15.60;99.90;;;;;;5043784;28;20461;-71
2022/10/16 08:02:32;;;;;;;1999.90;999.90;;;15.60;99.90;;;;;;5051663;28;21000;-70
2022/10/16 08:04:59;;;;;;;1999.90;999.90;;;15.60;99.90;;;;;;5051490;28;20450;-72
2022/10/16 08:07:26;;;;;;;1999.90;999.90;;;15.60;99.90;;;;;;5051403;28;20477;-68
2022/10/16 08:09:52;;;;;;;1999.90;999.90;;;15.70;99.90;;;;;;5042556;28;20463;-68
2022/10/16 08:12:19;;;;;;;1999.90;999.90;;;15.70;99.90;;;;;;5047101;28;20491;-70
2022/10/16 08:14:46;;;;;;;1999.90;999.90;;;15.80;99.90;;;;;;5041934;28;20450;-69
2022/10/16 08:17:16;;;;;;;1999.90;999.90;;;15.90;99.90;;;;;;5011887;28;20935;-69
2022/10/16 08:19:45;;;;;;;1999.90;999.90;;;15.90;99.90;;;;;;5012236;28;20463;-69
2022/10/16 08:22:12;;;;;;;1999.90;999.90;;;16.00;99.90;;;;;;5029717;28;20975;-72
2022/10/16 08:24:39;;;;;;;1999.90;999.90;;;16.10;99.90;;;;;;5044694;28;20450;-69
2022/10/16 08:27:06;;;;;;;1999.90;999.90;;;16.20;99.90;;;;;;5051364;28;20477;-69
2022/10/16 08:29:33;;;;;;;1999.90;999.90;;;16.20;99.90;;;;;;5051696;28;20449;-69
2022/10/16 08:32:00;;;;;;;1999.90;999.90;;;16.40;99.90;;;;;;5051624;28;20473;-69
2022/10/16 08:34:28;;;;;;;1999.90;999.90;;;16.40;99.90;;;;;;5040993;28;20463;-69
2022/10/16 08:36:55;;;;;;;1999.90;999.90;;;16.40;99.90;;;;;;5047199;28;20444;-69
2022/10/16 08:39:21;;;;;;;1999.90;999.90;;;16.40;99.90;;;;;;5051843;28;20442;-70
2022/10/16 08:42:21;;;;;;;1999.90;999.90;;;16.40;99.90;;;;;;5051612;28;20473;-70
2022/10/16 08:45:14;;;;;;;1999.90;999.90;;;16.40;99.90;;;;;;5045781;28;20467;-68
2022/10/16 08:47:49;;;;;;;1999.90;999.90;;;16.40;99.90;;;;;;5033572;28;20476;-68
2022/10/16 08:50:23;;;;;;;1999.90;999.90;;;16.30;99.90;;;;;;5031503;28;20427;-68
2022/10/16 08:52:50;;;;;;;1999.90;999.90;;;16.30;99.90;;;;;;5031332;28;20492;-70
2022/10/16 08:55:37;;;;;;;1999.90;999.90;;;16.40;99.90;;;;;;5029717;28;20983;-70
2022/10/16 08:58:13;;;;;;;1999.90;999.90;;;16.50;99.90;;;;;;5042771;28;20448;-69
2022/10/16 09:00:40;;;;;;;1999.90;999.90;;;16.60;99.90;;;;;;5051147;28;20847;-69
2022/10/16 09:03:17;;;;;;;1999.90;999.90;;;16.60;99.90;;;;;;5051141;28;20453;-69
2022/10/16 09:06:01;;;;;;;1999.90;999.90;;;16.70;99.90;;;;;;5051037;28;20449;-69
2022/10/16 09:08:35;;;;;;;1999.90;999.90;;;16.80;99.90;;;;;;5041963;28;20459;-68
2022/10/16 09:11:10;;;;;;;1999.90;999.90;;;16.90;99.90;;;;;;5047999;28;20809;-71
2022/10/16 09:13:44;;;;;;;1999.90;999.90;;;17.10;99.90;;;;;;5051348;28;20797;-69
2022/10/16 09:16:17;;;;;;;1999.90;999.90;;;17.10;99.90;;;;;;5041425;28;20458;-70
2022/10/16 09:18:48;;;;;;;1999.90;999.90;;;17.30;99.90;;;;;;5025584;28;20470;-68
2022/10/16 09:21:21;;;;;;;1999.90;999.90;;;17.40;99.90;;;;;;5028828;28;20486;-69
2022/10/16 09:23:48;;;;;;;1999.90;999.90;;;17.50;99.90;;;;;;5025546;28;20462;-70
2022/10/16 09:26:17;;;;;;;1999.90;999.90;;;17.50;99.90;;;;;;5017340;28;20488;-70
2022/10/16 09:28:45;;;;;;;1999.90;999.90;;;17.80;99.90;;;;;;5028806;28;20537;-70
2022/10/16 09:31:19;;;;;;;1999.90;999.90;;;17.60;99.90;;;;;;5028726;28;20483;-71
2022/10/16 09:33:49;;;;;;;1999.90;999.90;;;17.40;99.90;;;;;;5031076;28;20470;-69
2022/10/16 09:36:18;;;;;;;1999.90;999.90;;;17.40;99.90;;;;;;5029831;28;20478;-71
2022/10/16 09:38:45;;;;;;;1999.90;999.90;;;17.50;99.90;;;;;;5028819;28;20466;-69
2022/10/16 09:41:18;;;;;;;1999.90;999.90;;;17.60;99.90;;;;;;5030640;28;20479;-69
2022/10/16 09:43:50;;;;;;;1999.90;999.90;;;17.50;99.90;;;;;;5027801;28;20540;-69
2022/10/16 09:46:27;;;;;;;1999.90;999.90;;;17.70;99.90;;;;;;5027458;28;20483;-68
2022/10/16 09:48:56;;;;;;;1999.90;999.90;;;17.80;99.90;;;;;;5029693;28;20514;-69
2022/10/16 09:51:28;;;;;;;1999.90;999.90;;;17.80;99.90;;;;;;5025737;28;20483;-69
2022/10/16 09:54:00;;;;;;;1999.90;999.90;;;17.80;99.90;;;;;;5029678;28;20955;-68
2022/10/16 09:56:29;;;;;;;1999.90;999.90;;;17.90;99.90;;;;;;5027460;28;20460;-66
2022/10/16 09:58:58;;;;;;;1999.90;999.90;;;18.00;99.90;;;;;;5028086;28;20467;-71
2022/10/16 10:01:30;;;;;;;1999.90;999.90;;;18.00;99.90;;;;;;5033316;28;20472;-69
2022/10/16 10:04:00;;;;;;;1999.90;999.90;;;18.00;99.90;;;;;;5041185;28;20520;-69
2022/10/16 10:06:30;;;;;;;1999.90;999.90;;;17.90;99.90;;;;;;5013732;28;20468;-69
2022/10/16 10:09:16;;;;;;;1999.90;999.90;;;17.80;99.90;;;;;;5013981;28;20443;-69
2022/10/16 10:11:46;;;;;;;1999.90;999.90;;;17.90;99.90;;;;;;5013994;28;20472;-69
2022/10/16 10:14:28;;;;;;;1999.90;999.90;;;18.00;99.90;;;;;;5021733;28;20463;-69
2022/10/16 10:17:11;;;;;;;1999.90;999.90;;;18.10;99.90;;;;;;5039454;28;20534;-69
2022/10/16 10:19:43;;;;;;;1999.90;999.90;;;18.00;99.90;;;;;;5013931;28;20734;-69
2022/10/16 10:22:25;;;;;;;1999.90;999.90;;;18.00;99.90;;;;;;5012958;28;20468;-70
2022/10/16 10:25:09;;;;;;;1999.90;999.90;;;17.80;99.90;;;;;;5027823;28;20469;-69
2022/10/16 10:27:44;;;;;;;1999.90;999.90;;;17.90;99.90;;;;;;5039927;28;20478;-71
2022/10/16 10:30:19;;;;;;;1999.90;999.90;;;17.80;99.90;;;;;;5053338;28;20450;-69
2022/10/16 10:32:57;;;;;;;1999.90;999.90;;;17.80;99.90;;;;;;5053396;28;20429;-69
2022/10/16 10:35:29;;;;;;;1999.90;999.90;;;17.90;99.90;;;;;;5049539;28;20467;-69
2022/10/16 10:38:09;;;;;;;1999.90;999.90;;;18.00;99.90;;;;;;5040576;28;20818;-69
2022/10/16 10:40:46;;;;;;;1999.90;999.90;;;18.10;99.90;;;;;;5013913;28;20539;-69
2022/10/16 10:43:27;;;;;;;1999.90;999.90;;;18.00;99.90;;;;;;5013992;28;20435;-71
2022/10/16 10:45:57;;;;;;;1999.90;999.90;;;17.90;99.90;;;;;;5011468;28;20960;-69
2022/10/16 10:48:43;;;;;;;1999.90;999.90;;;17.90;99.90;;;;;;5015682;28;21002;-69
2022/10/16 10:51:15;;;;;;;1999.90;999.90;;;18.10;99.90;;;;;;5034724;28;20537;-69
2022/10/16 10:53:53;;;;;;;1999.90;999.90;;;18.40;99.90;;;;;;5039817;28;20975;-72
2022/10/16 10:56:42;;;;;;;1999.90;999.90;;;18.90;99.90;;;;;;5051379;28;20438;-69
2022/10/16 10:59:26;;;;;;;1999.90;999.90;;;19.40;99.90;;;;;;5048670;28;20463;-69
2022/10/16 11:01:57;;;;;;;1999.90;999.90;;;19.70;99.90;;;;;;5044444;28;20473;-69
2022/10/16 11:04:56;;;;;;;1999.90;999.90;;;19.40;99.90;;;;;;5052358;28;20941;-73
2022/10/16 11:07:28;;;;;;;1999.90;999.90;;;19.50;99.90;;;;;;5011927;28;20864;-71
2022/10/16 11:10:02;;;;;;;1999.90;999.90;;;19.40;99.90;;;;;;5030055;28;20968;-70
2022/10/16 11:12:32;;;;;;;1999.90;999.90;;;19.60;99.90;;;;;;5023641;28;20482;-69
2022/10/16 11:15:05;;;;;;;1999.90;999.90;;;19.60;99.90;;;;;;5031427;28;20462;-70
2022/10/16 11:17:39;;;;;;;1999.90;999.90;;;19.90;99.90;;;;;;5030536;28;20467;-68
2022/10/16 11:20:14;;;;;;;1999.90;999.90;;;19.80;99.90;;;;;;5041274;28;20431;-68
2022/10/16 11:22:48;;;;;;;1999.90;999.90;;;19.90;99.90;;;;;;5031899;28;20466;-69
2022/10/16 11:25:21;;;;;;;1999.90;999.90;;;20.00;99.90;;;;;;5030402;28;20451;-69
2022/10/16 11:27:52;;;;;;;1999.90;999.90;;;19.90;99.90;;;;;;5028508;28;20463;-70
2022/10/16 11:30:22;;;;;;;1999.90;999.90;;;20.00;99.90;;;;;;5030639;28;20459;-69
2022/10/16 11:33:02;;;;;;;1999.90;999.90;;;20.00;99.90;;;;;;5030296;28;20462;-69
2022/10/16 11:35:40;;;;;;;1999.90;999.90;;;19.80;99.90;;;;;;5029590;28;20836;-69
2022/10/16 11:38:15;;;;;;;1999.90;999.90;;;19.90;99.90;;;;;;5030021;28;20455;-70
2022/10/16 11:40:47;;;;;;;1999.90;999.90;;;20.00;99.90;;;;;;5030109;28;20482;-69
2022/10/16 11:43:20;;;;;;;1999.90;999.90;;;20.30;99.90;;;;;;5029106;28;20463;-68
2022/10/16 11:45:51;;;;;;;1999.90;999.90;;;20.40;99.90;;;;;;5030732;28;20467;-69
2022/10/16 11:48:25;;;;;;;1999.90;999.90;;;20.50;99.90;;;;;;5029546;28;20474;-69
2022/10/16 11:50:55;;;;;;;1999.90;999.90;;;20.70;99.90;;;;;;5029416;28;20493;-73
2022/10/16 11:53:31;;;;;;;1999.90;999.90;;;20.50;99.90;;;;;;5027646;28;20459;-69
2022/10/16 11:55:59;;;;;;;1999.90;999.90;;;20.30;99.90;;;;;;5029006;28;20455;-66
2022/10/16 11:58:30;;;;;;;1999.90;999.90;;;20.70;99.90;;;;;;5028836;28;20455;-69
2022/10/16 12:01:04;;;;;;;1999.90;999.90;;;21.40;99.90;;;;;;5028442;28;20483;-69
2022/10/16 12:03:40;;;;;;;1999.90;999.90;;;22.10;99.90;;;;;;5028164;28;20526;-69
2022/10/16 12:06:21;;;;;;;1999.90;999.90;;;21.70;99.90;;;;;;5027281;28;20454;-69
2022/10/16 12:08:48;;;;;;;1999.90;999.90;;;21.30;99.90;;;;;;5025104;28;20590;-69
2022/10/16 12:11:32;;;;;;;1999.90;999.90;;;21.40;99.90;;;;;;5027932;28;20483;-71